Time;durP1;ratioP1;P1;durP2;ratioP2;P2;SDS_P1;SDS_P2;PMS_P1;PMS_P2;Temp;Humidity;BMP_temperature;BMP_pressure;BME280_temperature;BME280_humidity;BME280_pressure;Samples;Min_cycle;Max_cycle;Signal;HPM_P1;HPM_P2
2022/02/08 00:01:58;;;;;;;20.10;3.55;;;2.90;99.90;;;;;;2586288;54;20069;31
2022/02/08 00:04:32;;;;;;;16.70;3.70;;;2.90;99.90;;;;;;2604759;46;20053;31
2022/02/08 00:07:08;;;;;;;16.30;3.40;;;2.90;99.90;;;;;;2586104;54;20878;31
2022/02/08 00:09:41;;;;;;;14.80;3.37;;;2.90;99.90;;;;;;2586188;54;20051;31
2022/02/08 00:12:18;;;;;;;16.27;3.13;;;3.00;99.90;;;;;;2586140;54;20950;31
2022/02/08 00:14:52;;;;;;;15.60;3.10;;;3.00;99.90;;;;;;2586247;54;20925;31
2022/02/08 00:17:26;;;;;;;12.50;2.30;;;3.00;99.90;;;;;;2586118;54;20474;31
2022/02/08 00:19:59;;;;;;;14.30;2.60;;;3.00;99.90;;;;;;2586293;54;20862;31
2022/02/08 00:22:31;;;;;;;17.80;2.67;;;3.00;99.90;;;;;;2586194;54;19961;31
2022/02/08 00:25:05;;;;;;;10.25;1.80;;;3.00;99.90;;;;;;2586385;54;20032;31
2022/02/08 00:27:42;;;;;;;14.13;2.83;;;3.00;99.90;;;;;;2586217;54;20765;31
2022/02/08 00:30:16;;;;;;;13.70;2.50;;;3.00;99.90;;;;;;2586356;54;20725;31
2022/02/08 00:32:48;;;;;;;15.15;3.08;;;3.00;99.90;;;;;;2586099;54;20085;31
2022/02/08 00:35:22;;;;;;;14.25;2.45;;;3.00;99.90;;;;;;2585717;54;20030;31
2022/02/08 00:37:56;;;;;;;10.93;2.47;;;3.00;99.90;;;;;;2586080;54;20950;31
2022/02/08 00:40:27;;;;;;;15.25;2.75;;;2.90;99.90;;;;;;2585799;54;20053;31
2022/02/08 00:43:04;;;;;;;15.73;2.47;;;3.00;99.90;;;;;;2586429;54;20033;31
2022/02/08 00:45:48;;;;;;;14.70;1.67;;;3.00;99.90;;;;;;2586237;54;20929;31
2022/02/08 00:48:31;;;;;;;15.30;2.20;;;3.00;99.90;;;;;;2591303;46;20859;31
2022/02/08 00:51:05;;;;;;;15.50;2.65;;;3.00;99.90;;;;;;2586139;54;20093;31
2022/02/08 00:53:44;;;;;;;12.30;2.28;;;3.00;99.90;;;;;;2585578;54;20950;31
2022/02/08 00:56:18;;;;;;;13.23;2.90;;;2.90;99.90;;;;;;2684038;39;21294;31
2022/02/08 00:58:55;;;;;;;13.00;2.70;;;3.00;99.90;;;;;;2604929;46;20026;31
2022/02/08 01:01:30;;;;;;;16.52;2.40;;;2.80;99.90;;;;;;2586299;54;21385;31
2022/02/08 01:04:06;;;;;;;14.60;2.30;;;2.80;99.90;;;;;;2586144;54;20042;31
2022/02/08 01:06:40;;;;;;;;;;;2.80;99.90;;;;;;2586096;54;20082;31
2022/02/08 01:09:17;;;;;;;15.23;2.92;;;2.80;99.90;;;;;;2586511;47;20791;31
2022/02/08 01:11:54;;;;;;;14.10;2.38;;;2.80;99.90;;;;;;2585888;54;20088;31
2022/02/08 01:14:37;;;;;;;12.60;3.00;;;2.70;99.90;;;;;;2587520;54;20124;31
2022/02/08 01:17:13;;;;;;;18.05;3.35;;;2.80;99.90;;;;;;2587942;54;20923;31
2022/02/08 01:19:49;;;;;;;15.18;2.10;;;2.70;99.90;;;;;;2587945;54;20825;31
2022/02/08 01:22:22;;;;;;;14.15;2.65;;;2.70;99.90;;;;;;2685825;38;21403;31
2022/02/08 01:24:54;;;;;;;21.53;3.57;;;2.70;99.90;;;;;;2587810;54;20882;31
2022/02/08 01:27:31;;;;;;;18.80;4.00;;;2.60;99.90;;;;;;2587560;54;20033;31
2022/02/08 01:30:13;;;;;;;13.77;2.78;;;2.60;99.90;;;;;;2587819;54;20761;31
2022/02/08 01:33:11;;;;;;;18.23;2.47;;;2.60;99.90;;;;;;2588083;54;20901;31
2022/02/08 01:35:57;;;;;;;17.60;5.25;;;2.60;99.90;;;;;;2587816;54;20841;31
2022/02/08 01:38:31;;;;;;;16.45;3.20;;;2.50;99.90;;;;;;2587816;54;20922;31
2022/02/08 01:41:21;;;;;;;19.95;2.50;;;2.50;99.90;;;;;;2587677;54;20724;31
2022/02/08 01:46:57;;;;;;;12.60;2.50;;;2.40;99.90;;;;;;2587988;46;20465;31
2022/02/08 01:49:36;;;;;;;19.50;3.00;;;2.40;99.90;;;;;;2605944;46;20499;31
2022/02/08 01:52:10;;;;;;;15.68;2.60;;;2.40;99.90;;;;;;2587656;54;20026;31
2022/02/08 01:54:43;;;;;;;22.97;3.10;;;2.30;99.90;;;;;;2605971;46;21533;31
2022/02/08 01:57:16;;;;;;;18.67;3.00;;;2.30;99.90;;;;;;2587561;54;20052;31
2022/02/08 01:59:49;;;;;;;26.60;3.80;;;2.20;99.90;;;;;;2587903;54;20767;31
2022/02/08 02:02:21;;;;;;;16.35;2.40;;;2.20;99.90;;;;;;2587601;54;21075;31
2022/02/08 02:04:56;;;;;;;17.83;2.50;;;2.20;99.90;;;;;;2586600;54;20075;31
2022/02/08 02:07:28;;;;;;;17.02;2.90;;;2.20;99.90;;;;;;2587483;54;20769;31
2022/02/08 02:12:41;;;;;;;14.75;3.17;;;2.20;99.90;;;;;;2587509;54;20104;31
2022/02/08 02:15:13;;;;;;;19.98;2.97;;;2.20;99.90;;;;;;2587526;54;20176;31
2022/02/08 02:17:47;;;;;;;16.58;2.78;;;2.20;99.90;;;;;;2587142;54;20125;31
2022/02/08 02:20:23;;;;;;;16.67;3.10;;;2.20;99.90;;;;;;2587469;54;20841;31
2022/02/08 02:22:56;;;;;;;29.63;5.30;;;2.10;99.90;;;;;;2587781;54;20042;31
2022/02/08 02:25:29;;;;;;;20.00;3.30;;;2.20;99.90;;;;;;2586650;54;20038;31
2022/02/08 02:30:36;;;;;;;19.80;2.80;;;2.20;99.90;;;;;;2586722;54;20456;31
2022/02/08 02:33:14;;;;;;;16.63;3.70;;;2.20;99.90;;;;;;2586791;54;20046;31
2022/02/08 02:35:48;;;;;;;23.25;2.90;;;2.30;99.90;;;;;;2586869;54;20895;31
2022/02/08 02:38:24;;;;;;;16.23;3.47;;;2.30;99.90;;;;;;2604817;46;20242;31
2022/02/08 02:40:57;;;;;;;21.15;3.30;;;2.30;99.90;;;;;;2586174;54;20152;31
2022/02/08 02:43:31;;;;;;;14.90;3.05;;;2.30;99.90;;;;;;2586511;54;20856;31
2022/02/08 02:46:07;;;;;;;20.90;3.00;;;2.30;99.90;;;;;;2586678;54;20042;31
2022/02/08 02:48:41;;;;;;;15.10;4.20;;;2.30;99.90;;;;;;2586191;54;20554;31
2022/02/08 02:51:16;;;;;;;18.95;3.80;;;2.30;99.90;;;;;;2586330;54;19968;31
2022/02/08 02:53:55;;;;;;;21.40;3.08;;;2.30;99.90;;;;;;2586682;54;20967;31
2022/02/08 02:56:29;;;;;;;18.55;2.95;;;2.40;99.90;;;;;;2586700;54;20868;31
2022/02/08 02:59:03;;;;;;;17.60;3.25;;;2.40;99.90;;;;;;2586454;54;20894;31
2022/02/08 03:01:48;;;;;;;17.70;2.75;;;2.40;99.90;;;;;;2586383;54;20761;31
2022/02/08 03:04:33;;;;;;;15.68;3.47;;;2.40;99.90;;;;;;2586429;54;20902;31
2022/02/08 03:18:33;;;;;;;17.23;2.67;;;2.50;99.90;;;;;;2586296;54;20027;31
2022/02/08 03:21:12;;;;;;;17.15;2.67;;;2.60;99.90;;;;;;2586737;54;20056;31
2022/02/08 03:23:44;;;;;;;24.45;3.00;;;2.60;99.90;;;;;;2586378;54;20900;31
2022/02/08 03:26:17;;;;;;;15.75;2.50;;;2.60;99.90;;;;;;2586610;54;20046;31
2022/02/08 03:28:58;;;;;;;14.07;3.20;;;2.60;99.90;;;;;;2586430;54;20033;31
2022/02/08 03:31:37;;;;;;;16.70;3.10;;;2.70;99.90;;;;;;2586459;54;21100;31
2022/02/08 03:34:14;;;;;;;14.10;2.90;;;2.70;99.90;;;;;;2586565;54;20744;31
2022/02/08 03:36:50;;;;;;;14.00;3.25;;;2.70;99.90;;;;;;2604969;46;20136;31
2022/02/08 03:39:31;;;;;;;14.10;3.00;;;2.70;99.90;;;;;;2586425;54;20746;31
2022/02/08 03:42:21;;;;;;;20.48;3.10;;;2.70;99.90;;;;;;2586568;54;20026;31
2022/02/08 03:45:03;;;;;;;15.65;3.65;;;2.60;99.90;;;;;;2586168;54;20859;31
2022/02/08 03:47:36;;;;;;;17.83;3.50;;;2.70;99.90;;;;;;2586285;54;20946;31
2022/02/08 03:50:15;;;;;;;15.88;2.05;;;2.70;99.90;;;;;;2586536;54;20113;31
2022/02/08 03:52:49;;;;;;;11.63;2.05;;;2.70;99.90;;;;;;2586461;54;20847;31
2022/02/08 03:55:25;;;;;;;15.80;2.65;;;2.70;99.90;;;;;;2586137;54;20913;31
2022/02/08 03:58:00;;;;;;;21.40;2.25;;;2.70;99.90;;;;;;2586441;54;20951;31
2022/02/08 04:00:45;;;;;;;18.73;3.10;;;2.70;99.90;;;;;;2585530;54;20860;31
2022/02/08 04:03:18;;;;;;;13.52;2.63;;;2.70;99.90;;;;;;2586241;54;20852;31
2022/02/08 04:05:52;;;;;;;19.27;2.10;;;2.70;99.90;;;;;;2586299;54;20093;31
2022/02/08 04:08:28;;;;;;;19.10;2.75;;;2.70;99.90;;;;;;2586186;54;20030;31
2022/02/08 04:11:01;;;;;;;16.90;2.40;;;2.80;99.90;;;;;;2586311;54;20038;31
2022/02/08 04:13:43;;;;;;;18.88;2.53;;;2.80;99.90;;;;;;2604658;46;20941;31
2022/02/08 04:16:25;;;;;;;13.35;2.58;;;2.80;99.90;;;;;;2586106;54;20034;31
2022/02/08 04:19:11;;;;;;;14.73;2.60;;;2.80;99.90;;;;;;2586433;54;20955;31
2022/02/08 04:32:59;;;;;;;17.70;2.20;;;2.90;99.90;;;;;;2586337;54;20029;31
2022/02/08 04:35:47;;;;;;;14.25;2.40;;;2.90;99.90;;;;;;2586277;54;20864;31
2022/02/08 04:38:34;;;;;;;12.45;2.63;;;2.90;99.90;;;;;;2586395;54;20955;31
2022/02/08 04:41:14;;;;;;;12.90;3.13;;;2.90;99.90;;;;;;2586066;54;19934;31
2022/02/08 04:43:56;;;;;;;16.10;2.50;;;2.90;99.90;;;;;;2586227;54;20030;31
2022/02/08 04:46:42;;;;;;;13.37;1.93;;;3.00;99.90;;;;;;2604612;46;20027;31
2022/02/08 04:49:13;;;;;;;15.60;2.60;;;2.90;99.90;;;;;;2585829;54;21144;31
2022/02/08 04:51:49;;;;;;;11.10;2.23;;;2.90;99.90;;;;;;2599853;46;20034;31
2022/02/08 04:54:28;;;;;;;11.05;2.38;;;2.90;99.90;;;;;;2586110;54;20868;31
2022/02/08 04:57:14;;;;;;;19.15;2.85;;;2.90;99.90;;;;;;2586298;54;20048;31
2022/02/08 05:36:01;;;;;;;10.60;2.42;;;3.00;99.90;;;;;;2585855;54;21166;31
2022/02/08 05:41:40;;;;;;;15.65;2.35;;;3.00;99.90;;;;;;2585924;54;20963;31
2022/02/08 05:44:27;;;;;;;20.92;2.58;;;3.00;99.90;;;;;;2585719;54;20030;31
2022/02/08 05:47:03;;;;;;;18.05;3.25;;;3.10;99.90;;;;;;2683697;39;20329;31
2022/02/08 05:49:43;;;;;;;11.70;2.88;;;3.00;99.90;;;;;;2584896;54;20879;31
2022/02/08 05:52:44;;;;;;;18.60;3.15;;;3.00;99.90;;;;;;2585880;54;20027;31
2022/02/08 05:55:16;;;;;;;16.63;2.67;;;3.10;99.90;;;;;;2585490;54;20034;31
2022/02/08 05:57:52;;;;;;;10.50;2.77;;;3.10;99.90;;;;;;2585510;54;20049;31
2022/02/08 06:00:27;;;;;;;11.83;2.70;;;3.10;99.90;;;;;;2586093;54;20464;31
2022/02/08 06:03:25;;;;;;;11.00;2.22;;;3.10;99.90;;;;;;2586434;54;21137;31
2022/02/08 06:06:04;;;;;;;17.35;2.83;;;3.10;99.90;;;;;;2605347;46;20897;31
2022/02/08 06:08:37;;;;;;;12.15;2.80;;;3.10;99.90;;;;;;2586714;54;20835;31
2022/02/08 06:11:15;;;;;;;14.40;3.10;;;3.10;99.90;;;;;;2586826;54;20037;31
2022/02/08 06:13:52;;;;;;;19.20;4.00;;;3.10;99.90;;;;;;2586644;54;20112;31
2022/02/08 06:16:29;;;;;;;17.35;4.25;;;3.20;99.90;;;;;;2586606;54;20070;31
2022/02/08 06:19:05;;;;;;;14.82;4.55;;;3.20;99.90;;;;;;2586570;54;20088;31
2022/02/08 06:21:37;;;;;;;18.10;5.13;;;3.20;99.90;;;;;;2586670;54;20891;31
2022/02/08 06:24:12;;;;;;;20.52;9.25;;;3.20;99.90;;;;;;2586600;54;20028;31
2022/02/08 06:26:45;;;;;;;17.08;4.10;;;3.20;99.90;;;;;;2586601;54;20843;31
2022/02/08 06:29:22;;;;;;;22.10;9.90;;;3.20;99.90;;;;;;2586390;54;20026;31
2022/02/08 06:31:55;;;;;;;28.15;17.15;;;3.20;99.90;;;;;;2586871;54;20734;31
2022/02/08 06:34:32;;;;;;;18.73;5.60;;;3.20;99.90;;;;;;2586562;54;20750;31
2022/02/08 06:37:09;;;;;;;;;;;3.20;99.90;;;;;;2586803;54;20844;31
2022/02/08 06:39:40;;;;;;;20.90;3.80;;;3.30;99.90;;;;;;2586313;54;21338;31
2022/02/08 06:42:12;;;;;;;17.15;3.80;;;3.30;99.90;;;;;;2586499;54;20094;31
2022/02/08 06:44:45;;;;;;;15.60;4.00;;;3.30;99.90;;;;;;2586586;54;20042;31
2022/02/08 06:47:19;;;;;;;15.35;4.20;;;3.30;99.90;;;;;;2586865;54;20026;31
2022/02/08 06:49:54;;;;;;;11.77;3.08;;;3.30;99.90;;;;;;2586381;54;20109;31
2022/02/08 06:52:30;;;;;;;22.55;4.80;;;3.30;99.90;;;;;;2585791;54;20037;31
2022/02/08 06:55:04;;;;;;;14.60;3.35;;;3.40;99.90;;;;;;2595687;46;20850;31
2022/02/08 06:57:48;;;;;;;14.83;3.40;;;3.40;99.90;;;;;;2585584;54;21254;31
2022/02/08 07:00:28;;;;;;;12.80;3.50;;;3.40;99.90;;;;;;2604707;46;20445;31
2022/02/08 07:03:07;;;;;;;12.90;3.30;;;3.50;99.90;;;;;;2586574;54;20261;31
2022/02/08 07:05:43;;;;;;;22.80;4.22;;;3.50;99.90;;;;;;2689806;39;20333;31
2022/02/08 07:08:15;;;;;;;16.20;4.30;;;3.50;99.90;;;;;;2586353;54;20093;31
2022/02/08 07:10:50;;;;;;;19.75;4.43;;;3.50;99.90;;;;;;2586181;54;20084;31
2022/02/08 07:13:22;;;;;;;13.10;4.38;;;3.60;99.90;;;;;;2586516;54;21103;31
2022/02/08 07:15:53;;;;;;;14.40;4.55;;;3.60;99.90;;;;;;2586078;54;20029;31
2022/02/08 07:18:27;;;;;;;14.80;4.25;;;3.70;99.90;;;;;;2586672;54;20144;31
2022/02/08 07:21:03;;;;;;;18.85;4.60;;;3.60;99.90;;;;;;2586393;54;20028;31
2022/02/08 07:23:37;;;;;;;18.43;4.37;;;3.60;99.90;;;;;;2586559;54;20029;31
2022/02/08 07:26:11;;;;;;;16.50;3.35;;;3.60;99.90;;;;;;2586377;54;20885;31
2022/02/08 07:28:45;;;;;;;20.75;4.85;;;3.70;99.90;;;;;;2605118;46;20046;31
2022/02/08 07:31:22;;;;;;;15.93;3.67;;;3.60;99.90;;;;;;2585850;54;20027;31
2022/02/08 07:34:06;;;;;;;18.35;4.00;;;3.60;99.90;;;;;;2586654;54;20076;31
2022/02/08 07:36:48;;;;;;;13.80;3.85;;;3.60;99.90;;;;;;2586553;54;20758;31
2022/02/08 07:39:33;;;;;;;15.40;4.15;;;3.70;99.90;;;;;;2589117;39;20895;31
2022/02/08 07:42:09;;;;;;;16.65;8.35;;;3.70;99.90;;;;;;2586365;54;20803;31
2022/02/08 07:44:43;;;;;;;16.53;4.73;;;3.70;99.90;;;;;;2586585;54;20870;31
2022/02/08 07:47:23;;;;;;;21.38;3.60;;;3.70;99.90;;;;;;2605075;46;20170;31
2022/02/08 07:49:57;;;;;;;13.02;2.85;;;3.80;99.90;;;;;;2684155;39;20531;31
2022/02/08 07:52:43;;;;;;;11.40;3.50;;;3.80;99.90;;;;;;2586536;54;20947;31
2022/02/08 07:55:16;;;;;;;19.35;5.03;;;3.80;99.90;;;;;;2586667;54;20807;31
2022/02/08 07:57:50;;;;;;;12.60;4.30;;;3.80;99.90;;;;;;2586610;54;20710;31
2022/02/08 08:00:27;;;;;;;12.00;4.10;;;3.90;99.90;;;;;;2586419;54;19941;31
2022/02/08 08:03:01;;;;;;;14.60;4.88;;;3.90;99.90;;;;;;2586283;54;20907;31
2022/02/08 08:05:35;;;;;;;15.10;4.50;;;4.00;99.90;;;;;;2586234;54;20470;31
2022/02/08 08:08:14;;;;;;;15.10;4.95;;;4.00;99.90;;;;;;2591474;46;20061;31
2022/02/08 08:10:49;;;;;;;17.05;4.88;;;4.10;99.90;;;;;;2604508;46;20038;31
2022/02/08 08:13:26;;;;;;;17.05;4.82;;;4.10;99.90;;;;;;2586345;54;20910;31
2022/02/08 08:16:10;;;;;;;16.60;6.00;;;4.20;99.90;;;;;;2604771;46;20974;31
2022/02/08 08:18:57;;;;;;;16.05;5.78;;;4.20;99.90;;;;;;2604998;46;20029;31
2022/02/08 08:21:30;;;;;;;;;;;4.20;99.90;;;;;;2586641;54;20827;31
2022/02/08 08:24:06;;;;;;;15.50;5.43;;;4.30;99.90;;;;;;2604274;46;19938;31
2022/02/08 08:26:37;;;;;;;13.20;5.10;;;4.30;99.90;;;;;;2586241;54;20902;31
2022/02/08 08:29:11;;;;;;;21.98;6.18;;;4.30;99.90;;;;;;2586192;54;20132;31
2022/02/08 08:31:45;;;;;;;17.30;5.22;;;4.30;99.90;;;;;;2586047;54;20450;31
2022/02/08 08:37:05;;;;;;;10.83;4.93;;;4.30;99.90;;;;;;2585977;54;20037;31
2022/02/08 08:39:46;;;;;;;18.15;5.47;;;4.40;99.90;;;;;;2586187;54;20737;31
2022/02/08 08:50:57;;;;;;;13.82;5.70;;;4.50;99.90;;;;;;2586151;54;20050;31
2022/02/08 08:53:33;;;;;;;13.10;6.05;;;4.50;99.90;;;;;;2586076;54;20022;31
2022/02/08 08:56:07;;;;;;;15.30;6.00;;;4.50;99.90;;;;;;2585995;54;20938;31
2022/02/08 08:58:44;;;;;;;18.77;6.00;;;4.60;99.90;;;;;;2588291;46;20802;31
2022/02/08 09:01:18;;;;;;;14.50;5.75;;;4.60;99.90;;;;;;2586020;54;20991;31
2022/02/08 09:03:52;;;;;;;13.75;5.50;;;4.60;99.90;;;;;;2586110;54;20878;31
2022/02/08 09:08:57;;;;;;;15.98;6.30;;;4.70;99.90;;;;;;2596385;46;20143;31
2022/02/08 09:11:51;;;;;;;16.45;7.03;;;4.70;99.90;;;;;;2585608;54;20044;31
2022/02/08 09:14:36;;;;;;;13.40;6.45;;;4.70;99.90;;;;;;2586013;54;20893;31
2022/02/08 09:23:20;;;;;;;19.50;6.88;;;4.80;99.90;;;;;;2586374;47;21119;31
2022/02/08 09:26:07;;;;;;;12.45;5.25;;;4.90;99.90;;;;;;2586052;54;20036;31
2022/02/08 09:28:55;;;;;;;19.65;5.50;;;4.90;99.90;;;;;;2585743;54;20386;31
2022/02/08 09:34:12;;;;;;;13.77;5.20;;;5.00;99.90;;;;;;2586009;54;20033;31
2022/02/08 09:36:47;;;;;;;11.73;4.95;;;5.00;99.90;;;;;;2586617;54;21034;31
2022/02/08 09:39:19;;;;;;;13.73;5.07;;;5.00;99.90;;;;;;2587377;46;20931;31
2022/02/08 09:41:55;;;;;;;12.98;5.25;;;5.10;99.90;;;;;;2586744;54;20030;31
2022/02/08 09:44:32;;;;;;;14.25;4.80;;;5.10;99.90;;;;;;2605089;46;20541;31
2022/02/08 09:47:05;;;;;;;9.52;4.72;;;5.10;99.90;;;;;;2586695;54;20033;31
2022/02/08 09:49:42;;;;;;;15.48;4.43;;;5.10;99.90;;;;;;2586760;54;20022;31
2022/02/08 09:54:45;;;;;;;9.45;4.45;;;5.20;99.90;;;;;;2592098;46;20034;31
2022/02/08 09:57:18;;;;;;;19.88;4.32;;;5.30;99.90;;;;;;2586746;54;20069;31
2022/02/08 09:59:55;;;;;;;10.45;4.75;;;5.40;99.90;;;;;;2586304;54;20113;31
2022/02/08 10:02:31;;;;;;;15.20;4.80;;;5.40;99.90;;;;;;2586624;54;20058;31
2022/02/08 10:05:05;;;;;;;15.63;4.75;;;5.50;99.90;;;;;;2586777;54;20825;31
2022/02/08 10:07:43;;;;;;;14.63;5.55;;;5.60;99.90;;;;;;2586726;54;20864;31
2022/02/08 10:10:31;;;;;;;16.60;5.90;;;5.70;99.90;;;;;;2586871;54;20750;31
2022/02/08 10:13:28;;;;;;;11.65;4.00;;;5.70;99.90;;;;;;2586361;54;20834;31
2022/02/08 10:19:26;;;;;;;20.00;4.30;;;5.90;99.90;;;;;;2586597;54;20856;31
2022/02/08 10:22:03;;;;;;;13.55;4.10;;;5.90;99.90;;;;;;2586342;54;20074;31
2022/02/08 10:27:28;;;;;;;14.60;4.15;;;6.00;99.90;;;;;;2586562;54;20059;31
2022/02/08 10:30:30;;;;;;;15.40;4.22;;;6.10;99.90;;;;;;2586658;54;20109;31
2022/02/08 10:38:45;;;;;;;10.68;3.05;;;6.40;99.90;;;;;;2586554;54;20076;31
2022/02/08 10:43:58;;;;;;;13.35;3.65;;;6.60;99.90;;;;;;2586876;54;20045;31
2022/02/08 10:46:32;;;;;;;8.70;3.10;;;6.70;99.90;;;;;;2586160;54;20052;31
2022/02/08 10:49:09;;;;;;;11.40;2.90;;;6.80;99.90;;;;;;2586703;54;20022;31
2022/02/08 10:51:46;;;;;;;18.95;3.95;;;6.80;99.90;;;;;;2605058;46;20100;31
2022/02/08 10:54:30;;;;;;;11.23;3.83;;;6.80;99.90;;;;;;2586434;54;20054;31
2022/02/08 10:57:11;;;;;;;10.25;3.45;;;6.80;99.90;;;;;;2586497;54;20037;31
2022/02/08 10:59:50;;;;;;;12.82;3.30;;;6.80;99.90;;;;;;2586615;54;20023;31
2022/02/08 11:02:29;;;;;;;9.85;4.03;;;6.80;99.90;;;;;;2586450;54;20034;31
2022/02/08 11:05:17;;;;;;;10.73;2.80;;;6.80;99.90;;;;;;2586432;54;20026;31
2022/02/08 11:08:09;;;;;;;8.60;3.03;;;6.70;99.90;;;;;;2586083;54;20744;31
2022/02/08 11:11:00;;;;;;;12.03;3.97;;;6.70;99.90;;;;;;2586417;54;20906;31
2022/02/08 11:13:45;;;;;;;7.70;3.20;;;6.70;99.90;;;;;;2586467;54;20886;31
2022/02/08 11:16:25;;;;;;;14.00;3.77;;;6.70;99.90;;;;;;2586360;54;20026;31
2022/02/08 11:19:36;;;;;;;13.05;3.50;;;6.80;99.90;;;;;;2605173;46;21190;31
2022/02/08 11:22:28;;;;;;;5.50;2.25;;;6.70;99.90;;;;;;2604677;46;20589;31
2022/02/08 11:25:12;;;;;;;6.05;1.60;;;6.80;99.90;;;;;;2604813;46;20766;31
2022/02/08 11:27:49;;;;;;;4.47;1.80;;;6.70;99.90;;;;;;2586517;54;19935;31
2022/02/08 11:30:33;;;;;;;5.83;2.10;;;6.80;99.90;;;;;;2586403;54;20030;31
2022/02/08 11:33:28;;;;;;;5.97;2.08;;;6.70;99.90;;;;;;2586295;54;20130;31
2022/02/08 11:47:53;;;;;;;6.87;1.90;;;6.70;99.90;;;;;;2586367;54;20031;31
2022/02/08 12:04:52;;;;;;;8.00;2.33;;;6.50;99.90;;;;;;2604656;46;20906;31
2022/02/08 12:07:26;;;;;;;7.45;2.35;;;6.50;99.90;;;;;;2604728;46;20577;31
2022/02/08 12:10:05;;;;;;;5.60;2.30;;;6.50;99.90;;;;;;2586145;54;20053;31
2022/02/08 12:55:22;;;;;;;5.15;1.65;;;6.50;99.90;;;;;;2585927;54;20070;31
2022/02/08 12:58:10;;;;;;;5.55;2.40;;;6.40;99.90;;;;;;2586154;54;20874;31
2022/02/08 13:00:54;;;;;;;7.00;2.20;;;6.50;99.90;;;;;;2586088;54;20120;31
2022/02/08 13:03:54;;;;;;;6.30;2.65;;;6.40;99.90;;;;;;2586222;54;20882;31
2022/02/08 14:08:22;;;;;;;7.28;4.00;;;6.30;99.90;;;;;;2588681;39;21277;31
2022/02/08 14:11:18;;;;;;;8.55;4.40;;;6.40;99.90;;;;;;2586147;54;20767;31
2022/02/08 14:17:14;;;;;;;13.85;5.75;;;6.30;99.90;;;;;;2585572;47;20527;31
2022/02/08 14:19:53;;;;;;;11.00;6.15;;;6.30;99.90;;;;;;2585625;54;20034;31
2022/02/08 14:22:36;;;;;;;19.02;7.10;;;6.30;99.90;;;;;;2685551;39;20496;31
2022/02/08 14:25:24;;;;;;;10.82;5.65;;;6.30;99.90;;;;;;2607581;39;20950;31
2022/02/08 14:30:49;;;;;;;10.10;4.63;;;6.20;99.90;;;;;;2596123;46;20462;31
2022/02/08 14:36:49;;;;;;;10.52;5.03;;;6.20;99.90;;;;;;2596191;46;20054;31
2022/02/08 15:07:40;;;;;;;7.10;4.60;;;6.10;99.90;;;;;;2586380;54;20034;31
2022/02/08 15:10:07;;;;;;;7.90;4.95;;;6.20;99.90;;;;;;2586417;54;20760;31
2022/02/08 15:12:41;;;;;;;11.20;5.65;;;6.10;99.90;;;;;;2586430;54;20899;31
2022/02/08 15:15:23;;;;;;;6.95;5.07;;;6.10;99.90;;;;;;2586433;54;20113;31
2022/02/08 15:17:58;;;;;;;7.63;5.05;;;6.10;99.90;;;;;;2586839;54;20903;31
2022/02/08 15:20:32;;;;;;;9.80;5.82;;;6.10;99.90;;;;;;2590983;46;20035;31
2022/02/08 15:23:29;;;;;;;8.93;4.50;;;6.10;99.90;;;;;;2586428;54;20895;31
2022/02/08 15:26:03;;;;;;;8.88;5.40;;;6.10;99.90;;;;;;2605075;46;20049;31
2022/02/08 15:28:38;;;;;;;8.70;4.77;;;6.20;99.90;;;;;;2586431;54;20536;31
2022/02/08 15:31:09;;;;;;;8.65;4.50;;;6.10;99.90;;;;;;2586383;54;20084;31
2022/02/08 15:33:43;;;;;;;7.93;4.13;;;6.20;99.90;;;;;;2586252;54;20027;31
2022/02/08 15:36:15;;;;;;;7.47;4.20;;;6.10;99.90;;;;;;2586395;54;20093;31
2022/02/08 15:38:53;;;;;;;6.80;4.05;;;6.10;99.90;;;;;;2586394;54;20109;31
2022/02/08 15:41:23;;;;;;;6.93;3.72;;;6.10;99.90;;;;;;2586648;54;20889;31
2022/02/08 15:43:55;;;;;;;10.25;4.45;;;6.10;99.90;;;;;;2587115;46;20022;31
2022/02/08 15:46:30;;;;;;;10.05;5.35;;;6.20;99.90;;;;;;2586632;54;20882;31
2022/02/08 15:49:14;;;;;;;10.10;4.85;;;6.10;99.90;;;;;;2586449;54;20022;31
2022/02/08 15:51:47;;;;;;;7.53;4.50;;;6.20;99.90;;;;;;2590124;46;20761;31
2022/02/08 15:54:26;;;;;;;13.15;6.10;;;6.20;99.90;;;;;;2586317;54;19935;31
2022/02/08 15:57:41;;;;;;;11.73;6.25;;;6.10;99.90;;;;;;2605268;46;20030;31
2022/02/08 16:00:23;;;;;;;7.00;4.30;;;6.10;99.90;;;;;;2586412;54;20858;31
2022/02/08 16:06:05;;;;;;;9.10;5.60;;;6.10;99.90;;;;;;2586531;54;20068;31
2022/02/08 16:08:44;;;;;;;9.67;6.00;;;6.20;99.90;;;;;;2586174;54;20072;31
2022/02/08 16:11:44;;;;;;;9.40;5.55;;;6.10;99.90;;;;;;2586373;54;20115;31
2022/02/08 16:14:35;;;;;;;10.80;6.60;;;6.20;99.90;;;;;;2593152;46;20094;31
2022/02/08 16:17:20;;;;;;;9.20;5.93;;;6.20;99.90;;;;;;2605042;46;20037;31
2022/02/08 16:20:05;;;;;;;10.20;5.10;;;6.20;99.90;;;;;;2605271;46;20839;31
2022/02/08 16:25:37;;;;;;;10.20;5.40;;;6.10;99.90;;;;;;2586319;54;20038;31
2022/02/08 16:53:24;;;;;;;8.50;5.15;;;6.30;99.90;;;;;;2587145;46;20042;31
2022/02/08 16:58:50;;;;;;;7.95;4.85;;;6.40;99.90;;;;;;2604106;46;20893;31
2022/02/08 17:01:29;;;;;;;9.25;5.60;;;6.50;99.90;;;;;;2586294;54;20031;31
2022/02/08 17:04:07;;;;;;;9.90;4.82;;;6.30;99.90;;;;;;2586049;54;20857;31
2022/02/08 17:06:44;;;;;;;9.50;5.18;;;6.40;99.90;;;;;;2684814;39;20568;31
2022/02/08 17:09:29;;;;;;;8.93;4.27;;;6.40;99.90;;;;;;2586225;54;20842;31
2022/02/08 17:12:05;;;;;;;10.67;5.73;;;6.40;99.90;;;;;;2586098;54;20026;31
2022/02/08 17:14:49;;;;;;;9.75;4.80;;;6.50;99.90;;;;;;2586394;54;20819;31
2022/02/08 17:45:44;;;;;;;8.20;5.00;;;6.60;99.90;;;;;;2586083;54;20754;31
2022/02/08 17:48:18;;;;;;;9.30;5.40;;;6.60;99.90;;;;;;2586234;54;20250;31
2022/02/08 17:50:54;;;;;;;10.77;5.47;;;6.60;99.90;;;;;;2586003;54;20093;31
2022/02/08 17:53:27;;;;;;;12.90;6.28;;;6.70;99.90;;;;;;2585916;54;20046;31
2022/02/08 17:56:01;;;;;;;10.70;5.60;;;6.70;99.90;;;;;;2587557;47;20790;31
2022/02/08 17:58:36;;;;;;;8.10;4.90;;;6.70;99.90;;;;;;2586689;54;20042;31
2022/02/08 18:01:08;;;;;;;8.80;4.60;;;6.70;99.90;;;;;;2586704;54;20257;31
2022/02/08 18:03:41;;;;;;;9.05;4.47;;;6.80;99.90;;;;;;2586826;54;20093;31
2022/02/08 18:06:19;;;;;;;8.60;4.35;;;6.80;99.90;;;;;;2586737;54;20867;31
2022/02/08 18:08:56;;;;;;;8.00;4.55;;;6.80;99.90;;;;;;2586910;54;21368;31
2022/02/08 18:11:30;;;;;;;8.00;4.40;;;6.80;99.90;;;;;;2586894;54;20009;31
2022/02/08 18:14:01;;;;;;;7.55;4.55;;;6.80;99.90;;;;;;2586884;54;20974;31
2022/02/08 18:16:34;;;;;;;8.60;4.50;;;6.80;99.90;;;;;;2601421;46;20767;31
2022/02/08 18:21:41;;;;;;;7.20;4.67;;;6.80;99.90;;;;;;2586732;54;20503;31
2022/02/08 18:24:42;;;;;;;9.32;4.57;;;6.90;99.90;;;;;;2586830;54;20113;31
2022/02/08 19:09:09;;;;;;;12.40;7.10;;;7.10;99.90;;;;;;2586329;54;20042;31
2022/02/08 19:20:13;;;;;;;9.35;6.35;;;7.00;99.90;;;;;;2586546;54;20847;31
2022/02/08 19:22:46;;;;;;;9.07;6.32;;;7.00;99.90;;;;;;2586530;54;20045;31
2022/02/08 19:25:18;;;;;;;8.68;4.97;;;7.00;99.90;;;;;;2586230;54;20470;31
2022/02/08 19:27:54;;;;;;;10.33;5.70;;;7.00;99.90;;;;;;2586407;54;20033;31
2022/02/08 19:30:26;;;;;;;13.20;7.40;;;7.00;99.90;;;;;;2586615;54;20278;31
2022/02/08 19:33:07;;;;;;;11.63;7.05;;;7.00;99.90;;;;;;2586023;54;20038;31
2022/02/08 19:35:41;;;;;;;14.20;5.80;;;7.00;99.90;;;;;;2586448;54;20032;31
2022/02/08 19:38:17;;;;;;;11.97;6.73;;;7.00;99.90;;;;;;2586411;54;20030;31
2022/02/08 19:40:50;;;;;;;15.95;7.15;;;7.00;99.90;;;;;;2586484;54;20729;31
2022/02/08 19:43:23;;;;;;;10.33;7.53;;;7.00;99.90;;;;;;2586436;54;19949;31
2022/02/08 19:45:57;;;;;;;14.85;7.90;;;7.00;99.90;;;;;;2605173;46;20369;31
2022/02/08 19:48:33;;;;;;;14.75;7.70;;;7.00;99.90;;;;;;2587284;54;21003;31
2022/02/08 19:51:04;;;;;;;11.57;7.85;;;6.90;99.90;;;;;;2586574;54;20935;31
2022/02/08 19:53:39;;;;;;;14.80;8.63;;;6.90;99.90;;;;;;2586497;54;20844;31
2022/02/08 19:56:26;;;;;;;10.45;8.10;;;6.90;99.90;;;;;;2586478;54;20053;31
2022/02/08 19:59:01;;;;;;;15.90;7.90;;;6.90;99.90;;;;;;2586071;54;20033;31
2022/02/08 20:01:35;;;;;;;16.57;8.73;;;6.80;99.90;;;;;;2604924;46;20064;31
2022/02/08 20:04:21;;;;;;;13.35;9.00;;;6.80;99.90;;;;;;2586108;54;20090;31
2022/02/08 20:07:04;;;;;;;12.57;8.00;;;6.80;99.90;;;;;;2586289;54;20528;31
2022/02/08 20:09:36;;;;;;;13.25;9.10;;;6.80;99.90;;;;;;2586349;54;20475;31
2022/02/08 20:12:29;;;;;;;19.25;9.15;;;6.80;99.90;;;;;;2586466;54;20057;31
2022/02/08 20:15:09;;;;;;;16.67;9.10;;;6.70;99.90;;;;;;2586028;54;20883;31
2022/02/08 20:17:41;;;;;;;11.87;8.53;;;6.80;99.90;;;;;;2586372;54;20026;31
2022/02/08 20:20:41;;;;;;;12.52;8.82;;;6.70;99.90;;;;;;2586254;54;20033;31
2022/02/08 20:23:20;;;;;;;15.40;8.30;;;6.70;99.90;;;;;;2604951;46;20061;31
2022/02/08 20:26:13;;;;;;;12.15;7.70;;;6.80;99.90;;;;;;2586225;54;20074;31
2022/02/08 20:29:20;;;;;;;11.75;7.40;;;6.80;99.90;;;;;;2586088;54;20904;31
2022/02/08 20:31:58;;;;;;;9.35;7.80;;;6.70;99.90;;;;;;2646978;39;21267;31